createdAt,value
2018-08-11T04:00:31.657Z,986.01
2018-08-11T04:01:31.607Z,985.98
2018-08-11T04:02:31.615Z,985.99
2018-08-11T04:03:31.592Z,986.05
2018-08-11T04:04:31.626Z,986.07
2018-08-11T04:05:31.572Z,986.06
2018-08-11T04:06:31.593Z,986.09
2018-08-11T04:07:31.544Z,986.01
2018-08-11T04:08:31.534Z,985.97
2018-08-11T04:09:31.533Z,985.98
2018-08-11T04:10:31.505Z,986.03
2018-08-11T04:11:31.534Z,986.08
2018-08-11T04:12:31.505Z,986.10
2018-08-11T04:13:31.477Z,986.06
2018-08-11T04:14:31.470Z,986.07
2018-08-11T04:15:31.450Z,986.06
2018-08-11T04:16:31.443Z,986.03
2018-08-11T04:17:31.430Z,986.01
2018-08-11T04:18:31.419Z,985.96
2018-08-11T04:19:31.415Z,985.96
2018-08-11T04:20:31.396Z,985.97
2018-08-11T04:21:31.383Z,985.98
2018-08-11T04:22:31.389Z,986.04
2018-08-11T04:23:31.362Z,986.10
2018-08-11T04:24:31.360Z,986.06
2018-08-11T04:25:31.336Z,986.07
2018-08-11T04:26:31.329Z,986.01
2018-08-11T04:27:31.354Z,985.94
2018-08-11T04:28:31.305Z,985.99
2018-08-11T04:29:31.304Z,985.97
2018-08-11T04:30:31.280Z,986.04
2018-08-11T04:31:31.269Z,986.05
2018-08-11T04:32:31.258Z,986.03
2018-08-11T04:33:31.250Z,986.01
2018-08-11T04:34:31.289Z,986.02
2018-08-11T04:35:31.282Z,986.02
2018-08-11T04:36:31.216Z,986.07
2018-08-11T04:37:31.199Z,986.14
2018-08-11T04:38:31.187Z,986.08
2018-08-11T04:39:31.196Z,986.05
2018-08-11T04:40:31.169Z,985.99
2018-08-11T04:41:31.162Z,986.01
2018-08-11T04:42:31.183Z,986.02
2018-08-11T04:43:31.132Z,986.00
2018-08-11T04:44:31.143Z,986.02
2018-08-11T04:45:31.110Z,986.01
2018-08-11T04:46:31.101Z,985.97
2018-08-11T04:47:31.091Z,986.03
2018-08-11T04:48:31.082Z,986.02
2018-08-11T04:49:31.076Z,985.98
2018-08-11T04:50:31.056Z,986.01
2018-08-11T04:51:31.045Z,985.97
2018-08-11T04:52:31.029Z,985.97
2018-08-11T04:53:31.023Z,985.97
2018-08-11T04:54:31.022Z,985.99
2018-08-11T04:55:31.001Z,985.96
2018-08-11T04:56:30.989Z,985.99
2018-08-11T04:57:30.974Z,985.96
2018-08-11T04:58:30.963Z,985.95
2018-08-11T04:59:30.973Z,985.95
2018-08-11T05:00:30.942Z,985.99
2018-08-11T05:01:30.934Z,986.01
2018-08-11T05:02:30.920Z,985.99
2018-08-11T05:03:30.944Z,985.95
2018-08-11T05:04:30.905Z,985.94
2018-08-11T05:05:30.884Z,985.97
2018-08-11T05:06:30.875Z,985.95
2018-08-11T05:07:30.866Z,985.94
2018-08-11T05:08:30.850Z,985.95
2018-08-11T05:09:30.851Z,985.94
2018-08-11T05:10:30.828Z,985.94
2018-08-11T05:11:30.821Z,985.90
2018-08-11T05:12:30.806Z,985.95
2018-08-11T05:13:30.792Z,985.91
2018-08-11T05:14:30.795Z,985.88
2018-08-11T05:15:30.779Z,985.92
2018-08-11T05:16:30.759Z,985.93
2018-08-11T05:17:30.766Z,985.92
2018-08-11T05:18:30.739Z,985.91
2018-08-11T05:19:30.737Z,985.92
2018-08-11T05:20:30.730Z,985.93
2018-08-11T05:21:30.706Z,985.96
2018-08-11T05:22:30.695Z,985.96
2018-08-11T05:23:30.681Z,985.93
2018-08-11T05:24:30.682Z,985.98
2018-08-11T05:25:30.658Z,986.03
2018-08-11T05:26:30.650Z,985.98
2018-08-11T05:27:30.666Z,985.99
2018-08-11T05:28:30.628Z,986.05
2018-08-11T05:29:30.628Z,986.01
2018-08-11T05:30:30.605Z,985.97
2018-08-11T05:31:30.594Z,986.01
2018-08-11T05:32:30.581Z,986.01
2018-08-11T05:33:30.567Z,986.03
2018-08-11T05:34:30.567Z,986.00
2018-08-11T05:35:30.545Z,986.02
2018-08-11T05:36:30.534Z,986.11
2018-08-11T05:37:30.525Z,986.08
2018-08-11T05:38:30.514Z,986.07
2018-08-11T05:39:30.522Z,986.09
2018-08-11T05:40:30.489Z,986.09
2018-08-11T05:41:30.502Z,986.10
2018-08-11T05:42:30.475Z,986.10
2018-08-11T05:43:30.460Z,986.10
2018-08-11T05:44:30.474Z,986.10
2018-08-11T05:45:30.432Z,986.08
2018-08-11T05:46:30.429Z,986.05
2018-08-11T05:47:30.410Z,986.04
2018-08-11T05:48:30.397Z,986.07
2018-08-11T05:49:30.419Z,986.09
2018-08-11T05:50:30.385Z,986.12
2018-08-11T05:51:30.371Z,986.14
2018-08-11T05:52:30.353Z,986.14
2018-08-11T05:53:30.353Z,986.10
2018-08-11T05:54:30.330Z,986.08
2018-08-11T05:55:30.348Z,986.10
2018-08-11T05:56:30.309Z,986.08
2018-08-11T05:57:30.301Z,986.12
2018-08-11T05:58:30.287Z,986.11
2018-08-11T05:59:30.287Z,986.09
2018-08-11T06:00:30.279Z,986.07
2018-08-11T06:01:30.253Z,986.04
2018-08-11T06:02:30.245Z,986.03
2018-08-11T06:03:30.229Z,986.07
2018-08-11T06:04:30.222Z,986.06
2018-08-11T06:05:30.221Z,986.10
2018-08-11T06:06:30.220Z,986.08
2018-08-11T06:07:30.185Z,986.12
2018-08-11T06:08:30.177Z,986.10
2018-08-11T06:09:30.163Z,986.12
2018-08-11T06:10:30.207Z,986.16
2018-08-11T06:11:30.147Z,986.11
2018-08-11T06:12:30.138Z,986.14
2018-08-11T06:13:30.121Z,986.14
2018-08-11T06:14:30.107Z,986.16
2018-08-11T06:15:30.112Z,986.07
2018-08-11T06:16:30.087Z,986.08
2018-08-11T06:17:30.075Z,986.09
2018-08-11T06:18:30.064Z,986.04
2018-08-11T06:19:30.052Z,986.07
2018-08-11T06:20:30.054Z,986.00
2018-08-11T06:21:30.029Z,985.98
2018-08-11T06:22:30.017Z,985.98
2018-08-11T06:23:30.012Z,985.98
2018-08-11T06:24:29.993Z,985.99
2018-08-11T06:25:29.991Z,985.99
2018-08-11T06:26:29.972Z,985.95
2018-08-11T06:27:29.962Z,985.93
2018-08-11T06:28:29.948Z,985.90
2018-08-11T06:29:29.940Z,986.03
2018-08-11T06:30:29.936Z,985.94
2018-08-11T06:31:30.034Z,985.97
2018-08-11T06:32:29.903Z,985.96
2018-08-11T06:33:29.895Z,985.94
2018-08-11T06:34:29.881Z,985.99
2018-08-11T06:35:29.881Z,985.95
2018-08-11T06:36:29.868Z,985.97
2018-08-11T06:37:29.852Z,985.95
2018-08-11T06:38:29.836Z,986.01
2018-08-11T06:39:29.828Z,985.98
2018-08-11T06:40:29.884Z,986.08
2018-08-11T06:41:29.804Z,986.04
2018-08-11T06:42:29.796Z,986.03
2018-08-11T06:43:29.781Z,986.03
2018-08-11T06:44:29.771Z,986.00
2018-08-11T06:45:29.821Z,986.13
2018-08-11T06:46:29.813Z,986.10
2018-08-11T06:47:29.735Z,986.10
2018-08-11T06:48:29.727Z,986.08
2018-08-11T06:49:29.720Z,986.08
2018-08-11T06:50:29.712Z,986.14
2018-08-11T06:51:29.693Z,986.06
2018-08-11T06:52:29.682Z,986.09
2018-08-11T06:53:29.668Z,986.11
2018-08-11T06:54:29.665Z,986.12
2018-08-11T06:55:29.684Z,985.98
2018-08-11T06:56:29.632Z,985.99
2018-08-11T06:57:29.635Z,986.07
2018-08-11T06:58:29.612Z,986.12
2018-08-11T06:59:29.601Z,986.12
2018-08-11T07:00:29.601Z,985.99
2018-08-11T07:01:29.578Z,986.15
2018-08-11T07:02:29.568Z,986.13
2018-08-11T07:03:29.558Z,986.18
2018-08-11T07:04:29.554Z,986.15
2018-08-11T07:05:29.546Z,985.99
2018-08-11T07:06:29.562Z,986.06
2018-08-11T07:07:29.512Z,985.99
2018-08-11T07:08:29.505Z,986.05
2018-08-11T07:09:29.488Z,986.04
2018-08-11T07:10:29.492Z,985.99
2018-08-11T07:11:29.496Z,986.09
2018-08-11T07:12:29.478Z,986.13
2018-08-11T07:13:29.445Z,986.15
2018-08-11T07:14:29.435Z,986.07
2018-08-11T07:15:29.433Z,986.06
2018-08-11T07:16:29.413Z,986.17
2018-08-11T07:17:29.402Z,986.14
2018-08-11T07:18:29.388Z,986.15
2018-08-11T07:19:29.378Z,986.08
2018-08-11T07:20:29.377Z,986.08
2018-08-11T07:21:29.464Z,986.08
2018-08-11T07:22:29.347Z,986.10
2018-08-11T07:23:29.334Z,986.10
2018-08-11T07:24:29.323Z,986.04
2018-08-11T07:25:29.328Z,986.14
2018-08-11T07:26:29.351Z,986.23
2018-08-11T07:27:29.292Z,986.17
2018-08-11T07:28:29.281Z,986.21
2018-08-11T07:29:29.278Z,986.12
2018-08-11T07:30:29.268Z,986.15
2018-08-11T07:31:29.250Z,986.20
2018-08-11T07:32:29.235Z,986.17
2018-08-11T07:33:29.234Z,986.23
2018-08-11T07:34:29.217Z,986.22
2018-08-11T07:35:29.214Z,986.25
2018-08-11T07:36:29.311Z,986.19
2018-08-11T07:37:29.182Z,986.20
2018-08-11T07:38:29.174Z,986.24
2018-08-11T07:39:29.158Z,986.16
2018-08-11T07:40:29.157Z,986.17
2018-08-11T07:41:29.138Z,986.19
2018-08-11T07:42:29.124Z,986.12
2018-08-11T07:43:29.144Z,986.18
2018-08-11T07:44:29.105Z,986.27
2018-08-11T07:45:29.103Z,986.14
2018-08-11T07:46:29.082Z,986.23
2018-08-11T07:47:29.094Z,986.20
2018-08-11T07:48:29.067Z,986.12
2018-08-11T07:49:29.049Z,986.17
2018-08-11T07:50:29.193Z,986.18
2018-08-11T07:51:29.028Z,986.15
2018-08-11T07:52:29.015Z,986.11
2018-08-11T07:53:29.011Z,986.12
2018-08-11T07:54:28.991Z,986.17
2018-08-11T07:55:28.981Z,986.19
2018-08-11T07:56:28.984Z,986.08
2018-08-11T07:57:28.962Z,986.06
2018-08-11T07:58:28.947Z,986.03
2018-08-11T07:59:28.938Z,985.94
2018-08-11T08:00:28.926Z,985.92
2018-08-11T08:01:29.033Z,985.93
2018-08-11T08:02:28.906Z,986.00
2018-08-11T08:03:28.896Z,985.95
2018-08-11T08:04:28.885Z,986.03
2018-08-11T08:05:28.873Z,986.08
2018-08-11T08:06:28.869Z,986.09
2018-08-11T08:07:28.857Z,986.06
2018-08-11T08:08:28.840Z,986.05
2018-08-11T08:09:28.828Z,986.03
2018-08-11T08:10:28.816Z,986.07
2018-08-11T08:11:28.819Z,986.09
2018-08-11T08:12:28.794Z,986.07
2018-08-11T08:13:28.784Z,985.99
2018-08-11T08:14:28.779Z,985.96
2018-08-11T08:15:28.763Z,986.07
2018-08-11T08:16:28.765Z,986.04
2018-08-11T08:17:28.742Z,986.03
2018-08-11T08:18:28.730Z,986.11
2018-08-11T08:19:28.719Z,986.13
2018-08-11T08:20:28.709Z,986.13
2018-08-11T08:21:28.711Z,986.17
2018-08-11T08:22:28.686Z,986.10
2018-08-11T08:23:28.676Z,986.18
2018-08-11T08:24:28.665Z,986.20
2018-08-11T08:25:28.654Z,986.14
2018-08-11T08:26:28.770Z,986.08
2018-08-11T08:27:28.630Z,986.32
2018-08-11T08:28:28.625Z,986.26
2018-08-11T08:29:28.613Z,986.23
2018-08-11T08:30:28.596Z,986.22
2018-08-11T08:31:28.605Z,986.24
2018-08-11T08:32:28.575Z,986.16
2018-08-11T08:33:28.565Z,986.15
2018-08-11T08:34:28.553Z,986.14
2018-08-11T08:35:28.542Z,986.19
2018-08-11T08:36:28.543Z,986.11
2018-08-11T08:37:28.522Z,986.11
2018-08-11T08:38:28.518Z,986.10
2018-08-11T08:39:28.499Z,986.09
2018-08-11T08:40:28.490Z,986.07
2018-08-11T08:41:28.489Z,986.19
2018-08-11T08:42:28.473Z,986.12
2018-08-11T08:43:28.456Z,986.08
2018-08-11T08:44:28.448Z,986.05
2018-08-11T08:45:28.432Z,986.11
2018-08-11T08:46:28.441Z,986.15
2018-08-11T08:47:28.495Z,986.05
2018-08-11T08:48:28.407Z,986.04
2018-08-11T08:49:28.390Z,986.02
2018-08-11T08:50:28.380Z,986.01
2018-08-11T08:51:28.378Z,986.04
2018-08-11T08:52:28.354Z,986.04
2018-08-11T08:53:28.345Z,985.98
2018-08-11T08:54:28.335Z,985.93
2018-08-11T08:55:28.324Z,985.94
2018-08-11T08:56:28.328Z,985.92
2018-08-11T08:57:28.299Z,985.98
2018-08-11T08:58:28.293Z,985.98
2018-08-11T08:59:28.278Z,986.02
2018-08-11T09:00:28.269Z,985.95
2018-08-11T09:01:28.270Z,985.97
2018-08-11T09:02:28.248Z,985.98
2018-08-11T09:03:28.231Z,985.96
2018-08-11T09:04:28.225Z,985.94
2018-08-11T09:05:28.218Z,985.93
2018-08-11T09:06:28.209Z,986.00
2018-08-11T09:07:28.191Z,985.95
2018-08-11T09:08:28.182Z,986.01
2018-08-11T09:09:28.173Z,985.97
2018-08-11T09:10:28.156Z,986.01
2018-08-11T09:11:28.153Z,985.99
2018-08-11T09:12:28.133Z,986.02
2018-08-11T09:13:28.121Z,986.01
2018-08-11T09:14:28.113Z,985.89
2018-08-11T09:15:28.102Z,986.00
2018-08-11T09:16:28.102Z,986.00
2018-08-11T09:17:28.085Z,985.88
2018-08-11T09:18:28.068Z,985.92
2018-08-11T09:19:28.129Z,985.88
2018-08-11T09:20:28.046Z,985.85
2018-08-11T09:21:28.046Z,986.03
2018-08-11T09:22:28.022Z,986.09
2018-08-11T09:23:28.012Z,986.03
2018-08-11T09:24:28.001Z,986.06
2018-08-11T09:25:27.993Z,986.05
2018-08-11T09:26:27.991Z,986.03
2018-08-11T09:27:27.966Z,986.05
2018-08-11T09:28:27.954Z,986.06
2018-08-11T09:29:27.953Z,986.13
2018-08-11T09:30:27.936Z,986.11
2018-08-11T09:31:27.933Z,986.14
2018-08-11T09:32:27.918Z,986.15
2018-08-11T09:33:27.901Z,986.07
2018-08-11T09:34:27.891Z,986.17
2018-08-11T09:35:27.882Z,986.15
2018-08-11T09:36:27.878Z,986.10
2018-08-11T09:37:27.857Z,986.16
2018-08-11T09:38:27.875Z,986.10
2018-08-11T09:39:27.836Z,986.12
2018-08-11T09:40:27.826Z,986.25
2018-08-11T09:41:27.821Z,986.13
2018-08-11T09:42:27.801Z,986.03
2018-08-11T09:43:27.790Z,986.27
2018-08-11T09:44:27.778Z,986.18
2018-08-11T09:45:27.769Z,986.25
2018-08-11T09:46:27.770Z,986.13
2018-08-11T09:47:27.767Z,986.16
2018-08-11T09:48:27.741Z,986.17
2018-08-11T09:49:27.726Z,986.19
2018-08-11T09:50:27.713Z,986.15
2018-08-11T09:51:27.755Z,986.12
2018-08-11T09:52:27.691Z,986.18
2018-08-11T09:53:27.679Z,986.21
2018-08-11T09:54:27.668Z,986.25
2018-08-11T09:55:27.659Z,986.14
2018-08-11T09:56:27.645Z,986.20
2018-08-11T09:57:27.649Z,986.14
2018-08-11T09:58:27.624Z,986.38
2018-08-11T09:59:27.618Z,986.21
2018-08-11T10:00:27.605Z,986.33
2018-08-11T10:01:27.592Z,986.20
2018-08-11T10:02:27.590Z,986.17
2018-08-11T10:03:27.574Z,986.18
2018-08-11T10:04:27.559Z,986.17
2018-08-11T10:05:27.550Z,986.16
2018-08-11T10:06:27.536Z,986.28
2018-08-11T10:07:27.533Z,986.26
2018-08-11T10:08:27.513Z,986.20
2018-08-11T10:09:27.501Z,986.20
2018-08-11T10:10:27.504Z,986.16
2018-08-11T10:11:27.480Z,986.16
2018-08-11T10:12:27.482Z,986.23
2018-08-11T10:13:27.460Z,986.16
2018-08-11T10:14:27.450Z,986.17
2018-08-11T10:15:27.436Z,986.20
2018-08-11T10:16:27.426Z,986.21
2018-08-11T10:17:27.428Z,986.18
2018-08-11T10:18:27.459Z,986.18
2018-08-11T10:19:27.392Z,986.21
2018-08-11T10:20:27.384Z,986.22
2018-08-11T10:21:27.372Z,986.21
2018-08-11T10:22:27.367Z,986.29
2018-08-11T10:23:27.351Z,986.26
2018-08-11T10:24:27.423Z,986.20
2018-08-11T10:25:27.326Z,986.20
2018-08-11T10:26:27.314Z,986.23
2018-08-11T10:27:27.348Z,986.15
2018-08-11T10:28:27.294Z,986.20
2018-08-11T10:29:27.283Z,986.22
2018-08-11T10:30:27.269Z,986.21
2018-08-11T10:31:27.272Z,986.25
2018-08-11T10:32:27.468Z,986.19
2018-08-11T10:33:27.236Z,986.20
2018-08-11T10:34:27.226Z,986.23
2018-08-11T10:35:27.216Z,986.21
2018-08-11T10:36:27.212Z,986.29
2018-08-11T10:37:27.207Z,986.27
2018-08-11T10:38:27.181Z,986.21
2018-08-11T10:39:27.171Z,986.23
2018-08-11T10:40:27.162Z,986.19
2018-08-11T10:41:27.155Z,986.19
2018-08-11T10:42:27.152Z,986.12
2018-08-11T10:43:27.132Z,986.08
2018-08-11T10:44:27.120Z,986.03
2018-08-11T10:45:27.105Z,986.06
2018-08-11T10:46:27.104Z,986.03
2018-08-11T10:47:27.092Z,986.04
2018-08-11T10:48:27.076Z,986.14
2018-08-11T10:49:27.062Z,986.13
2018-08-11T10:50:27.083Z,986.06
2018-08-11T10:51:27.040Z,986.13
2018-08-11T10:52:27.040Z,986.07
2018-08-11T10:53:27.018Z,986.03
2018-08-11T10:54:27.012Z,986.06
2018-08-11T10:55:26.995Z,986.04
2018-08-11T10:56:26.988Z,986.01
2018-08-11T10:57:26.982Z,986.04
2018-08-11T10:58:26.971Z,986.01
2018-08-11T10:59:26.952Z,985.96
2018-08-11T11:00:26.938Z,986.00
2018-08-11T11:01:26.980Z,986.00
2018-08-11T11:02:26.931Z,986.09
2018-08-11T11:03:26.908Z,986.13
2018-08-11T11:04:26.898Z,986.00
2018-08-11T11:05:26.886Z,985.98
2018-08-11T11:06:26.874Z,985.92
2018-08-11T11:07:26.871Z,986.03
2018-08-11T11:08:26.882Z,986.00
2018-08-11T11:09:26.838Z,985.99
2018-08-11T11:10:26.829Z,985.96
2018-08-11T11:11:26.818Z,985.91
2018-08-11T11:12:26.815Z,985.94
2018-08-11T11:13:26.801Z,985.87
2018-08-11T11:14:26.794Z,985.87
2018-08-11T11:15:26.777Z,985.92
2018-08-11T11:16:26.768Z,985.92
2018-08-11T11:17:26.760Z,985.95
2018-08-11T11:18:26.741Z,985.96
2018-08-11T11:19:26.728Z,985.94
2018-08-11T11:20:26.722Z,985.87
2018-08-11T11:21:26.708Z,985.89
2018-08-11T11:22:26.909Z,985.89
2018-08-11T11:23:26.684Z,985.94
2018-08-11T11:24:26.674Z,985.88
2018-08-11T11:25:26.666Z,985.92
2018-08-11T11:26:26.731Z,985.82
2018-08-11T11:27:26.762Z,985.86
2018-08-11T11:28:26.743Z,985.84
2018-08-11T11:29:26.624Z,985.82
2018-08-11T11:30:26.611Z,985.82
2018-08-11T11:31:26.603Z,985.87
2018-08-11T11:32:26.603Z,985.83
2018-08-11T11:33:26.578Z,985.85
2018-08-11T11:34:26.564Z,985.82
2018-08-11T11:35:26.558Z,985.81
2018-08-11T11:36:26.542Z,985.81
2018-08-11T11:37:26.540Z,985.90
2018-08-11T11:38:26.527Z,985.96
2018-08-11T11:39:26.511Z,985.88
2018-08-11T11:40:26.497Z,985.83
2018-08-11T11:41:26.486Z,985.82
2018-08-11T11:42:26.524Z,985.80
2018-08-11T11:43:26.478Z,985.85
2018-08-11T11:44:26.467Z,985.91
2018-08-11T11:45:26.446Z,985.88
2018-08-11T11:46:26.430Z,985.90
2018-08-11T11:47:26.430Z,985.96
2018-08-11T11:48:26.408Z,985.90
2018-08-11T11:49:26.397Z,986.00
2018-08-11T11:50:26.388Z,985.93
2018-08-11T11:51:26.377Z,985.96
2018-08-11T11:52:26.374Z,985.93
2018-08-11T11:53:26.356Z,985.97
2018-08-11T11:54:26.347Z,985.95
2018-08-11T11:55:26.560Z,985.95
2018-08-11T11:56:26.323Z,986.01
2018-08-11T11:57:26.322Z,985.97
2018-08-11T11:58:26.299Z,986.06
2018-08-11T11:59:26.296Z,986.11
2018-08-11T12:00:26.288Z,986.04
2018-08-11T12:01:26.267Z,985.99
2018-08-11T12:02:26.287Z,985.98
2018-08-11T12:03:26.242Z,985.94
2018-08-11T12:04:26.235Z,986.00
2018-08-11T12:05:26.227Z,985.91
2018-08-11T12:06:26.215Z,985.95
2018-08-11T12:07:26.198Z,985.97
2018-08-11T12:08:26.200Z,986.00
2018-08-11T12:09:26.181Z,985.89
2018-08-11T12:10:26.166Z,986.01
2018-08-11T12:11:26.156Z,986.09
2018-08-11T12:12:26.145Z,986.05
2018-08-11T12:13:26.144Z,986.07
2018-08-11T12:14:26.126Z,985.98
2018-08-11T12:15:26.121Z,985.98
2018-08-11T12:16:26.099Z,985.95
2018-08-11T12:17:26.091Z,986.03
2018-08-11T12:18:26.090Z,986.00
2018-08-11T12:19:26.093Z,986.03
2018-08-11T12:20:26.054Z,985.98
2018-08-11T12:21:26.050Z,986.02
2018-08-11T12:22:26.051Z,986.00
2018-08-11T12:23:26.031Z,986.03
2018-08-11T12:24:26.011Z,985.96
2018-08-11T12:25:26.000Z,985.96
2018-08-11T12:26:25.989Z,986.00
2018-08-11T12:27:25.979Z,986.01
2018-08-11T12:28:25.981Z,985.92
2018-08-11T12:29:25.955Z,985.93
2018-08-11T12:30:25.950Z,985.99
2018-08-11T12:31:25.937Z,985.97
2018-08-11T12:32:25.925Z,985.93
2018-08-11T12:33:25.925Z,985.92
2018-08-11T12:34:25.900Z,985.99
2018-08-11T12:35:25.888Z,986.06
2018-08-11T12:36:25.878Z,985.96
2018-08-11T12:37:25.870Z,985.90
2018-08-11T12:38:25.871Z,985.92
2018-08-11T12:39:25.846Z,985.81
2018-08-11T12:40:25.840Z,985.92
2018-08-11T12:41:25.822Z,985.85
2018-08-11T12:42:25.817Z,985.80
2018-08-11T12:43:25.814Z,985.78
2018-08-11T12:44:25.791Z,985.77
2018-08-11T12:45:25.781Z,985.72
2018-08-11T12:46:25.767Z,985.69
2018-08-11T12:47:25.765Z,985.81
2018-08-11T12:48:25.753Z,985.78
2018-08-11T12:49:25.738Z,985.81
2018-08-11T12:50:25.723Z,985.79
2018-08-11T12:51:25.713Z,985.84
2018-08-11T12:52:25.702Z,985.89
2018-08-11T12:53:25.722Z,985.83
2018-08-11T12:54:25.688Z,985.88
2018-08-11T12:55:25.668Z,985.90
2018-08-11T12:56:25.656Z,985.98
2018-08-11T12:57:25.645Z,985.95
2018-08-11T12:58:25.672Z,985.92
2018-08-11T12:59:25.623Z,985.91
2018-08-11T13:00:25.620Z,985.87
2018-08-11T13:01:25.645Z,985.94
2018-08-11T13:02:25.590Z,985.86
2018-08-11T13:03:25.589Z,985.87
2018-08-11T13:04:25.575Z,985.83
2018-08-11T13:05:25.556Z,985.82
2018-08-11T13:06:25.581Z,985.79
2018-08-11T13:07:25.535Z,985.81
2018-08-11T13:08:25.533Z,985.79
2018-08-11T13:09:25.552Z,985.93
2018-08-11T13:10:25.505Z,985.89
2018-08-11T13:11:25.490Z,985.75
2018-08-11T13:12:25.483Z,985.83
2018-08-11T13:13:25.485Z,985.78
2018-08-11T13:14:25.473Z,985.84
2018-08-11T13:15:25.450Z,985.75
2018-08-11T13:16:25.438Z,985.78
2018-08-11T13:17:25.425Z,985.83
2018-08-11T13:18:25.425Z,985.76
2018-08-11T13:19:25.402Z,985.80
2018-08-11T13:20:25.394Z,985.85
2018-08-11T13:21:25.381Z,985.76
2018-08-11T13:22:25.373Z,985.79
2018-08-11T13:23:25.374Z,985.84
2018-08-11T13:24:25.352Z,985.78
2018-08-11T13:25:25.337Z,985.79
2018-08-11T13:26:25.327Z,985.70
2018-08-11T13:27:25.313Z,985.84
2018-08-11T13:28:25.314Z,985.83
2018-08-11T13:29:25.293Z,985.79
2018-08-11T13:30:25.283Z,985.77
2018-08-11T13:31:25.268Z,985.71
2018-08-11T13:32:25.261Z,985.77
2018-08-11T13:33:25.260Z,985.81
2018-08-11T13:34:25.235Z,985.70
2018-08-11T13:35:25.227Z,985.81
2018-08-11T13:36:25.214Z,985.82
2018-08-11T13:37:25.208Z,985.77
2018-08-11T13:38:25.203Z,985.73
2018-08-11T13:39:25.183Z,985.73
2018-08-11T13:40:25.168Z,985.71
2018-08-11T13:41:25.159Z,985.72
2018-08-11T13:42:25.150Z,985.78
2018-08-11T13:43:25.145Z,985.75
2018-08-11T13:44:25.145Z,985.74
2018-08-11T13:45:25.114Z,985.73
2018-08-11T13:46:25.129Z,985.72
2018-08-11T13:47:25.092Z,985.74
2018-08-11T13:48:25.097Z,985.74
2018-08-11T13:49:25.074Z,985.66
2018-08-11T13:50:25.062Z,985.67
2018-08-11T13:51:25.057Z,985.66
2018-08-11T13:52:25.040Z,985.65
2018-08-11T13:53:25.037Z,985.66
2018-08-11T13:54:25.078Z,985.69
2018-08-11T13:55:25.010Z,985.54
2018-08-11T13:56:24.999Z,985.54
2018-08-11T13:57:24.980Z,985.59
2018-08-11T13:58:24.981Z,985.64
2018-08-11T13:59:24.959Z,985.66
2018-08-11T14:00:24.954Z,985.63
2018-08-11T14:01:24.965Z,985.53
2018-08-11T14:02:24.929Z,985.54
2018-08-11T14:03:24.949Z,985.53
2018-08-11T14:04:24.906Z,985.50
2018-08-11T14:05:24.894Z,985.49
2018-08-11T14:06:24.883Z,985.54
2018-08-11T14:07:24.909Z,985.58
2018-08-11T14:08:24.861Z,985.61
2018-08-11T14:09:24.861Z,985.55
2018-08-11T14:10:24.844Z,985.60
2018-08-11T14:11:24.827Z,985.54
2018-08-11T14:12:24.820Z,985.57
2018-08-11T14:13:24.805Z,985.51
2018-08-11T14:14:24.808Z,985.57
2018-08-11T14:15:24.787Z,985.50
2018-08-11T14:16:24.772Z,985.52
2018-08-11T14:17:24.764Z,985.56
2018-08-11T14:18:24.762Z,985.54
2018-08-11T14:19:24.754Z,985.59
2018-08-11T14:20:24.874Z,985.63
2018-08-11T14:21:24.721Z,985.66
2018-08-11T14:22:24.705Z,985.57
2018-08-11T14:23:24.697Z,985.59
2018-08-11T14:24:24.696Z,985.55
2018-08-11T14:25:24.673Z,985.61
2018-08-11T14:26:24.661Z,985.61
2018-08-11T14:27:24.658Z,985.60
2018-08-11T14:28:24.637Z,985.67
2018-08-11T14:29:24.638Z,985.64
2018-08-11T14:30:24.615Z,985.70
2018-08-11T14:31:24.612Z,985.71
2018-08-11T14:32:24.593Z,985.71
2018-08-11T14:33:24.583Z,985.70
2018-08-11T14:34:24.597Z,985.72
2018-08-11T14:35:24.561Z,985.69
2018-08-11T14:36:24.556Z,985.77
2018-08-11T14:37:24.540Z,985.71
2018-08-11T14:38:24.535Z,985.68
2018-08-11T14:39:24.526Z,985.65
2018-08-11T14:40:24.510Z,985.67
2018-08-11T14:41:24.493Z,985.61
2018-08-11T14:42:24.482Z,985.64
2018-08-11T14:43:24.475Z,985.55
2018-08-11T14:44:24.544Z,985.67
2018-08-11T14:45:24.453Z,985.56
2018-08-11T14:46:24.441Z,985.54
2018-08-11T14:47:24.431Z,985.52
2018-08-11T14:48:24.417Z,985.49
2018-08-11T14:49:24.422Z,985.60
2018-08-11T14:50:24.445Z,985.56
2018-08-11T14:51:24.383Z,985.54
2018-08-11T14:52:24.372Z,985.61
2018-08-11T14:53:24.364Z,985.63
2018-08-11T14:54:24.363Z,985.57
2018-08-11T14:55:24.343Z,985.54
2018-08-11T14:56:24.458Z,985.53
2018-08-11T14:57:24.325Z,985.52
2018-08-11T14:58:24.311Z,985.61
2018-08-11T14:59:24.309Z,985.66
2018-08-11T15:00:24.289Z,985.66
2018-08-11T15:01:24.276Z,985.66
2018-08-11T15:02:24.272Z,985.61
2018-08-11T15:03:24.250Z,985.68
2018-08-11T15:04:24.254Z,985.66
2018-08-11T15:05:24.229Z,985.63
2018-08-11T15:06:24.219Z,985.58
2018-08-11T15:07:24.210Z,985.57
2018-08-11T15:08:24.198Z,985.58
2018-08-11T15:09:24.200Z,985.59
2018-08-11T15:10:24.173Z,985.56
2018-08-11T15:11:24.164Z,985.52
2018-08-11T15:12:24.151Z,985.53
2018-08-11T15:13:24.143Z,985.48
2018-08-11T15:14:24.142Z,985.53
2018-08-11T15:15:24.120Z,985.50
2018-08-11T15:16:24.250Z,985.52
2018-08-11T15:17:24.098Z,985.50
2018-08-11T15:18:24.085Z,985.51
2018-08-11T15:19:24.086Z,985.53
2018-08-11T15:20:24.063Z,985.55
2018-08-11T15:21:24.052Z,985.54
2018-08-11T15:22:24.041Z,985.55
2018-08-11T15:23:24.039Z,985.53
2018-08-11T15:24:24.031Z,985.50
2018-08-11T15:25:24.010Z,985.54
2018-08-11T15:26:23.997Z,985.56
2018-08-11T15:27:23.989Z,985.56
2018-08-11T15:28:23.974Z,985.55
2018-08-11T15:29:23.973Z,985.56
2018-08-11T15:30:23.953Z,985.59
2018-08-11T15:31:23.944Z,985.55
2018-08-11T15:32:23.940Z,985.51
2018-08-11T15:33:23.985Z,985.55
2018-08-11T15:34:23.943Z,985.55
2018-08-11T15:35:23.903Z,985.55
2018-08-11T15:36:23.895Z,985.51
2018-08-11T15:37:23.875Z,985.54
2018-08-11T15:38:23.863Z,985.46
2018-08-11T15:39:23.864Z,985.51
2018-08-11T15:40:23.842Z,985.48
2018-08-11T15:41:23.831Z,985.51
2018-08-11T15:42:23.820Z,985.49
2018-08-11T15:43:23.846Z,985.43
2018-08-11T15:44:23.814Z,985.45
2018-08-11T15:45:23.789Z,985.43
2018-08-11T15:46:23.934Z,985.45
2018-08-11T15:47:23.763Z,985.40
2018-08-11T15:48:23.752Z,985.40
2018-08-11T15:49:23.751Z,985.33
2018-08-11T15:50:23.732Z,985.36
2018-08-11T15:51:23.718Z,985.34
2018-08-11T15:52:23.710Z,985.34
2018-08-11T15:53:23.743Z,985.32
2018-08-11T15:54:23.804Z,985.28
2018-08-11T15:55:23.675Z,985.29
2018-08-11T15:56:23.668Z,985.19
2018-08-11T15:57:23.660Z,985.15
2018-08-11T15:58:23.642Z,985.21
2018-08-11T15:59:23.648Z,985.21
2018-08-11T16:00:23.620Z,985.19
2018-08-11T16:01:23.610Z,985.15
2018-08-11T16:02:23.598Z,985.21
2018-08-11T16:03:23.588Z,985.28
2018-08-11T16:04:23.590Z,985.27
2018-08-11T16:05:23.567Z,985.28
2018-08-11T16:06:23.553Z,985.30
2018-08-11T16:07:23.546Z,985.30
2018-08-11T16:08:23.531Z,985.35
2018-08-11T16:09:23.588Z,985.26
2018-08-11T16:10:23.518Z,985.28
2018-08-11T16:11:23.497Z,985.30
2018-08-11T16:12:23.489Z,985.24
2018-08-11T16:13:23.477Z,985.29
2018-08-11T16:14:23.467Z,985.29
2018-08-11T16:15:23.468Z,985.34
2018-08-11T16:16:23.444Z,985.35
2018-08-11T16:17:23.430Z,985.33
2018-08-11T16:18:23.426Z,985.27
2018-08-11T16:19:23.407Z,985.31
2018-08-11T16:20:23.408Z,985.26
2018-08-11T16:21:23.387Z,985.35
2018-08-11T16:22:23.403Z,985.30
2018-08-11T16:23:23.363Z,985.34
2018-08-11T16:24:23.355Z,985.32
2018-08-11T16:25:23.355Z,985.31
2018-08-11T16:26:23.334Z,985.33
2018-08-11T16:27:23.321Z,985.34
2018-08-11T16:28:23.308Z,985.39